Terminal Aerodrome Forecast
Issued by NWS

Home | Current Version | Previous Version | Text Only | Print | Product List | Glossary On
Versions: 1 2 3 4 5 6 7 8 9 10 11 12 13 14 15 16 17 18 19 20 21 22 23 24 25 26 27 28 29 30 31 32 33 34 35 36 37 38 39 40
000
FTUS45 KBOU 152320
TAFBJC
TAF
KBJC 152320Z 1600/1624 01005KT P6SM FEW060 SCT110
     FM160200 30006KT P6SM FEW120 SCT200
     FM160400 27008KT P6SM FEW220
     FM161700 36008KT P6SM FEW100 FEW220
     FM162200 08005KT P6SM SCT080 SCT120=

USA.gov is the U.S. government's official web portal to all federal, state and local government web resources and services.